sensor_id;sensor_type;location;lat;lon;timestamp;temperature;humidity
28175;SHT30;59417;44.788;10.334;2023-12-14T00:01:45;7.88;89.43
28175;SHT30;59417;44.788;10.334;2023-12-14T00:04:12;7.86;89.32
28175;SHT30;59417;44.788;10.334;2023-12-14T00:06:38;7.87;89.18
28175;SHT30;59417;44.788;10.334;2023-12-14T00:09:05;7.93;89.09
28175;SHT30;59417;44.788;10.334;2023-12-14T00:11:32;7.80;88.64
28175;SHT30;59417;44.788;10.334;2023-12-14T00:13:59;7.57;90.04
28175;SHT30;59417;44.788;10.334;2023-12-14T00:16:25;7.71;89.90
28175;SHT30;59417;44.788;10.334;2023-12-14T00:18:52;7.76;89.75
28175;SHT30;59417;44.788;10.334;2023-12-14T00:21:19;7.80;89.86
28175;SHT30;59417;44.788;10.334;2023-12-14T00:23:45;7.81;89.59
28175;SHT30;59417;44.788;10.334;2023-12-14T00:28:44;7.84;89.71
28175;SHT30;59417;44.788;10.334;2023-12-14T00:31:10;7.84;89.77
28175;SHT30;59417;44.788;10.334;2023-12-14T00:33:36;7.94;89.83
28175;SHT30;59417;44.788;10.334;2023-12-14T00:36:02;8.01;89.37
28175;SHT30;59417;44.788;10.334;2023-12-14T00:38:27;8.02;89.25
28175;SHT30;59417;44.788;10.334;2023-12-14T00:40:53;8.01;89.23
28175;SHT30;59417;44.788;10.334;2023-12-14T00:43:18;8.02;89.14
28175;SHT30;59417;44.788;10.334;2023-12-14T00:45:44;8.07;88.96
28175;SHT30;59417;44.788;10.334;2023-12-14T00:48:11;8.08;88.40
28175;SHT30;59417;44.788;10.334;2023-12-14T00:50:36;8.02;88.51
28175;SHT30;59417;44.788;10.334;2023-12-14T00:53:02;7.98;89.04
28175;SHT30;59417;44.788;10.334;2023-12-14T00:55:27;7.91;89.11
28175;SHT30;59417;44.788;10.334;2023-12-14T00:57:53;7.88;89.27
28175;SHT30;59417;44.788;10.334;2023-12-14T01:00:18;7.90;89.27
28175;SHT30;59417;44.788;10.334;2023-12-14T01:02:44;7.94;89.38
28175;SHT30;59417;44.788;10.334;2023-12-14T01:05:10;7.98;89.07
28175;SHT30;59417;44.788;10.334;2023-12-14T01:07:35;7.98;89.14
28175;SHT30;59417;44.788;10.334;2023-12-14T01:10:02;7.98;89.03
28175;SHT30;59417;44.788;10.334;2023-12-14T01:12:27;8.11;88.57
28175;SHT30;59417;44.788;10.334;2023-12-14T01:14:53;8.35;87.79
28175;SHT30;59417;44.788;10.334;2023-12-14T01:17:18;8.26;87.87
28175;SHT30;59417;44.788;10.334;2023-12-14T01:19:44;8.38;87.19
28175;SHT30;59417;44.788;10.334;2023-12-14T01:22:10;8.39;87.27
28175;SHT30;59417;44.788;10.334;2023-12-14T01:24:36;8.33;87.55
28175;SHT30;59417;44.788;10.334;2023-12-14T01:27:02;8.22;87.98
28175;SHT30;59417;44.788;10.334;2023-12-14T01:29:27;8.35;87.23
28175;SHT30;59417;44.788;10.334;2023-12-14T01:31:53;8.18;88.09
28175;SHT30;59417;44.788;10.334;2023-12-14T01:34:19;8.14;88.66
28175;SHT30;59417;44.788;10.334;2023-12-14T01:36:44;8.14;89.08
28175;SHT30;59417;44.788;10.334;2023-12-14T01:39:11;8.07;89.14
28175;SHT30;59417;44.788;10.334;2023-12-14T01:41:36;7.93;89.81
28175;SHT30;59417;44.788;10.334;2023-12-14T01:44:02;8.02;89.63
28175;SHT30;59417;44.788;10.334;2023-12-14T01:46:28;8.05;89.39
28175;SHT30;59417;44.788;10.334;2023-12-14T01:48:54;8.12;89.31
28175;SHT30;59417;44.788;10.334;2023-12-14T01:51:20;8.52;87.50
28175;SHT30;59417;44.788;10.334;2023-12-14T01:53:45;8.60;86.57
28175;SHT30;59417;44.788;10.334;2023-12-14T01:56:11;8.52;87.03
28175;SHT30;59417;44.788;10.334;2023-12-14T01:58:36;8.22;87.92
28175;SHT30;59417;44.788;10.334;2023-12-14T02:01:28;8.33;87.90
28175;SHT30;59417;44.788;10.334;2023-12-14T02:03:57;8.14;88.74
28175;SHT30;59417;44.788;10.334;2023-12-14T02:06:23;8.08;89.17
28175;SHT30;59417;44.788;10.334;2023-12-14T02:08:48;8.05;89.42
28175;SHT30;59417;44.788;10.334;2023-12-14T02:11:14;8.05;89.58
28175;SHT30;59417;44.788;10.334;2023-12-14T02:13:40;8.10;89.66
28175;SHT30;59417;44.788;10.334;2023-12-14T02:16:06;8.22;89.65
28175;SHT30;59417;44.788;10.334;2023-12-14T02:18:32;8.21;89.61
28175;SHT30;59417;44.788;10.334;2023-12-14T02:21:01;8.17;89.63
28175;SHT30;59417;44.788;10.334;2023-12-14T02:23:30;8.18;89.58
28175;SHT30;59417;44.788;10.334;2023-12-14T02:25:56;8.24;89.46
28175;SHT30;59417;44.788;10.334;2023-12-14T02:28:23;8.28;89.33
28175;SHT30;59417;44.788;10.334;2023-12-14T02:30:53;8.24;89.23
28175;SHT30;59417;44.788;10.334;2023-12-14T02:33:19;8.25;89.18
28175;SHT30;59417;44.788;10.334;2023-12-14T02:35:44;8.28;89.13
28175;SHT30;59417;44.788;10.334;2023-12-14T02:38:10;8.28;89.16
28175;SHT30;59417;44.788;10.334;2023-12-14T02:40:36;8.32;89.29
28175;SHT30;59417;44.788;10.334;2023-12-14T02:43:05;8.33;89.23
28175;SHT30;59417;44.788;10.334;2023-12-14T02:45:35;8.33;89.18
28175;SHT30;59417;44.788;10.334;2023-12-14T02:48:06;8.87;86.74
28175;SHT30;59417;44.788;10.334;2023-12-14T02:50:34;8.62;87.62
28175;SHT30;59417;44.788;10.334;2023-12-14T02:53:00;8.54;87.96
28175;SHT30;59417;44.788;10.334;2023-12-14T02:55:26;8.60;87.75
28175;SHT30;59417;44.788;10.334;2023-12-14T02:57:56;8.36;88.47
28175;SHT30;59417;44.788;10.334;2023-12-14T03:00:33;8.28;89.00
28175;SHT30;59417;44.788;10.334;2023-12-14T03:03:01;8.28;89.38
28175;SHT30;59417;44.788;10.334;2023-12-14T03:05:34;8.35;89.51
28175;SHT30;59417;44.788;10.334;2023-12-14T03:08:12;8.59;88.76
28175;SHT30;59417;44.788;10.334;2023-12-14T03:10:46;8.79;87.87
28175;SHT30;59417;44.788;10.334;2023-12-14T03:13:19;8.84;87.46
28175;SHT30;59417;44.788;10.334;2023-12-14T03:16:03;8.70;88.04
28175;SHT30;59417;44.788;10.334;2023-12-14T03:18:35;8.48;89.20
28175;SHT30;59417;44.788;10.334;2023-12-14T03:21:04;8.35;89.80
28175;SHT30;59417;44.788;10.334;2023-12-14T03:23:42;8.38;90.11
28175;SHT30;59417;44.788;10.334;2023-12-14T03:26:11;8.36;90.32
28175;SHT30;59417;44.788;10.334;2023-12-14T03:28:40;8.48;90.02
28175;SHT30;59417;44.788;10.334;2023-12-14T03:31:16;8.83;88.25
28175;SHT30;59417;44.788;10.334;2023-12-14T03:34:04;8.81;88.14
28175;SHT30;59417;44.788;10.334;2023-12-14T03:36:41;8.83;87.89
28175;SHT30;59417;44.788;10.334;2023-12-14T03:39:18;8.90;87.98
28175;SHT30;59417;44.788;10.334;2023-12-14T03:41:57;8.96;87.60
28175;SHT30;59417;44.788;10.334;2023-12-14T03:44:28;8.93;87.90
28175;SHT30;59417;44.788;10.334;2023-12-14T03:47:07;8.92;88.13
28175;SHT30;59417;44.788;10.334;2023-12-14T03:49:40;8.86;88.62
28175;SHT30;59417;44.788;10.334;2023-12-14T03:52:30;8.86;88.63
28175;SHT30;59417;44.788;10.334;2023-12-14T03:55:11;8.84;88.71
28175;SHT30;59417;44.788;10.334;2023-12-14T03:58:01;8.84;88.72
28175;SHT30;59417;44.788;10.334;2023-12-14T04:00:37;8.79;89.13
28175;SHT30;59417;44.788;10.334;2023-12-14T04:03:08;8.84;88.75
28175;SHT30;59417;44.788;10.334;2023-12-14T04:05:38;8.74;89.40
28175;SHT30;59417;44.788;10.334;2023-12-14T04:08:07;8.81;89.48
28175;SHT30;59417;44.788;10.334;2023-12-14T04:10:41;8.89;89.16
28175;SHT30;59417;44.788;10.334;2023-12-14T04:13:13;8.93;89.18
28175;SHT30;59417;44.788;10.334;2023-12-14T04:15:43;8.94;88.86
28175;SHT30;59417;44.788;10.334;2023-12-14T04:18:10;8.99;88.69
28175;SHT30;59417;44.788;10.334;2023-12-14T04:20:37;9.00;88.54
28175;SHT30;59417;44.788;10.334;2023-12-14T04:23:07;8.99;88.67
28175;SHT30;59417;44.788;10.334;2023-12-14T04:25:35;9.00;88.59
28175;SHT30;59417;44.788;10.334;2023-12-14T04:28:02;8.93;89.02
28175;SHT30;59417;44.788;10.334;2023-12-14T04:30:27;8.96;89.01
28175;SHT30;59417;44.788;10.334;2023-12-14T04:32:53;8.97;88.94
28175;SHT30;59417;44.788;10.334;2023-12-14T04:35:18;8.89;89.25
28175;SHT30;59417;44.788;10.334;2023-12-14T04:37:44;9.01;88.96
28175;SHT30;59417;44.788;10.334;2023-12-14T04:40:10;9.01;88.59
28175;SHT30;59417;44.788;10.334;2023-12-14T04:42:35;9.08;88.45
28175;SHT30;59417;44.788;10.334;2023-12-14T04:45:01;9.11;88.55
28175;SHT30;59417;44.788;10.334;2023-12-14T04:47:27;9.08;88.51
28175;SHT30;59417;44.788;10.334;2023-12-14T04:49:54;9.11;88.54
28175;SHT30;59417;44.788;10.334;2023-12-14T04:52:19;9.13;88.56
28175;SHT30;59417;44.788;10.334;2023-12-14T04:54:45;9.00;88.76
28175;SHT30;59417;44.788;10.334;2023-12-14T04:57:10;8.77;89.52
28175;SHT30;59417;44.788;10.334;2023-12-14T04:59:36;8.93;89.44
28175;SHT30;59417;44.788;10.334;2023-12-14T05:02:01;8.93;89.49
28175;SHT30;59417;44.788;10.334;2023-12-14T05:04:27;9.01;88.97
28175;SHT30;59417;44.788;10.334;2023-12-14T05:06:53;9.00;89.18
28175;SHT30;59417;44.788;10.334;2023-12-14T05:09:19;8.92;89.55
28175;SHT30;59417;44.788;10.334;2023-12-14T05:11:44;8.89;90.11
28175;SHT30;59417;44.788;10.334;2023-12-14T05:14:10;8.80;90.11
28175;SHT30;59417;44.788;10.334;2023-12-14T05:16:36;8.74;90.37
28175;SHT30;59417;44.788;10.334;2023-12-14T05:19:01;8.74;90.55
28175;SHT30;59417;44.788;10.334;2023-12-14T05:21:27;8.74;90.71
28175;SHT30;59417;44.788;10.334;2023-12-14T05:23:52;8.80;90.49
28175;SHT30;59417;44.788;10.334;2023-12-14T05:26:19;8.99;90.05
28175;SHT30;59417;44.788;10.334;2023-12-14T05:28:45;9.13;88.93
28175;SHT30;59417;44.788;10.334;2023-12-14T05:31:11;9.10;88.93
28175;SHT30;59417;44.788;10.334;2023-12-14T05:33:39;9.17;88.93
28175;SHT30;59417;44.788;10.334;2023-12-14T05:36:06;9.23;88.55
28175;SHT30;59417;44.788;10.334;2023-12-14T05:38:35;9.20;88.26
28175;SHT30;59417;44.788;10.334;2023-12-14T05:41:01;9.15;88.54
28175;SHT30;59417;44.788;10.334;2023-12-14T05:43:27;9.18;88.70
28175;SHT30;59417;44.788;10.334;2023-12-14T05:45:52;9.11;88.78
28175;SHT30;59417;44.788;10.334;2023-12-14T05:48:18;9.15;88.69
28175;SHT30;59417;44.788;10.334;2023-12-14T05:50:43;9.20;88.35
28175;SHT30;59417;44.788;10.334;2023-12-14T05:53:09;9.15;88.42
28175;SHT30;59417;44.788;10.334;2023-12-14T05:55:35;9.17;88.60
28175;SHT30;59417;44.788;10.334;2023-12-14T05:58:00;9.14;88.58
28175;SHT30;59417;44.788;10.334;2023-12-14T06:00:26;9.11;88.79
28175;SHT30;59417;44.788;10.334;2023-12-14T06:02:51;9.10;88.80
28175;SHT30;59417;44.788;10.334;2023-12-14T06:05:20;9.07;89.12
28175;SHT30;59417;44.788;10.334;2023-12-14T06:07:45;9.14;88.80
28175;SHT30;59417;44.788;10.334;2023-12-14T06:10:11;9.04;88.96
28175;SHT30;59417;44.788;10.334;2023-12-14T06:12:37;9.15;88.77
28175;SHT30;59417;44.788;10.334;2023-12-14T06:15:02;9.11;88.82
28175;SHT30;59417;44.788;10.334;2023-12-14T06:17:28;9.11;88.79
28175;SHT30;59417;44.788;10.334;2023-12-14T06:19:54;9.20;88.69
28175;SHT30;59417;44.788;10.334;2023-12-14T06:22:20;9.06;89.32
28175;SHT30;59417;44.788;10.334;2023-12-14T06:24:45;9.15;88.90
28175;SHT30;59417;44.788;10.334;2023-12-14T06:27:11;9.14;88.80
28175;SHT30;59417;44.788;10.334;2023-12-14T06:29:37;9.18;88.59
28175;SHT30;59417;44.788;10.334;2023-12-14T06:32:03;9.13;88.77
28175;SHT30;59417;44.788;10.334;2023-12-14T06:34:29;9.18;88.60
28175;SHT30;59417;44.788;10.334;2023-12-14T06:36:54;9.18;88.72
28175;SHT30;59417;44.788;10.334;2023-12-14T06:39:20;9.20;88.61
28175;SHT30;59417;44.788;10.334;2023-12-14T06:41:46;9.13;88.53
28175;SHT30;59417;44.788;10.334;2023-12-14T06:44:11;9.06;88.78
28175;SHT30;59417;44.788;10.334;2023-12-14T06:46:37;9.04;89.08
28175;SHT30;59417;44.788;10.334;2023-12-14T06:49:02;9.01;89.00
28175;SHT30;59417;44.788;10.334;2023-12-14T06:51:28;9.03;88.98
28175;SHT30;59417;44.788;10.334;2023-12-14T06:53:53;9.00;89.01
28175;SHT30;59417;44.788;10.334;2023-12-14T06:56:19;9.06;88.82
28175;SHT30;59417;44.788;10.334;2023-12-14T06:58:45;9.06;88.63
28175;SHT30;59417;44.788;10.334;2023-12-14T07:01:14;9.03;88.56
28175;SHT30;59417;44.788;10.334;2023-12-14T07:03:41;9.04;88.59
28175;SHT30;59417;44.788;10.334;2023-12-14T07:06:16;9.00;88.70
28175;SHT30;59417;44.788;10.334;2023-12-14T07:08:43;9.03;88.67
28175;SHT30;59417;44.788;10.334;2023-12-14T07:11:12;9.01;88.87
28175;SHT30;59417;44.788;10.334;2023-12-14T07:13:38;9.04;88.65
28175;SHT30;59417;44.788;10.334;2023-12-14T07:16:09;9.01;88.92
28175;SHT30;59417;44.788;10.334;2023-12-14T07:18:35;9.01;88.62
28175;SHT30;59417;44.788;10.334;2023-12-14T07:21:02;9.03;88.34
28175;SHT30;59417;44.788;10.334;2023-12-14T07:23:27;9.03;88.47
28175;SHT30;59417;44.788;10.334;2023-12-14T07:25:53;9.00;88.67
28175;SHT30;59417;44.788;10.334;2023-12-14T07:28:20;9.10;88.08
28175;SHT30;59417;44.788;10.334;2023-12-14T07:30:46;9.10;87.77
28175;SHT30;59417;44.788;10.334;2023-12-14T07:33:12;9.10;87.73
28175;SHT30;59417;44.788;10.334;2023-12-14T07:35:37;9.10;87.68
28175;SHT30;59417;44.788;10.334;2023-12-14T07:38:03;9.17;87.74
28175;SHT30;59417;44.788;10.334;2023-12-14T07:40:29;9.08;87.68
28175;SHT30;59417;44.788;10.334;2023-12-14T07:42:58;9.15;87.69
28175;SHT30;59417;44.788;10.334;2023-12-14T07:45:29;9.08;87.49
28175;SHT30;59417;44.788;10.334;2023-12-14T07:48:01;8.92;88.40
28175;SHT30;59417;44.788;10.334;2023-12-14T07:50:30;9.14;87.74
28175;SHT30;59417;44.788;10.334;2023-12-14T07:52:56;8.93;88.10
28175;SHT30;59417;44.788;10.334;2023-12-14T07:58:07;9.08;87.62
28175;SHT30;59417;44.788;10.334;2023-12-14T08:00:32;9.15;88.02
28175;SHT30;59417;44.788;10.334;2023-12-14T08:03:01;9.17;87.53
28175;SHT30;59417;44.788;10.334;2023-12-14T08:05:32;9.13;87.46
28175;SHT30;59417;44.788;10.334;2023-12-14T08:08:00;9.11;87.85
28175;SHT30;59417;44.788;10.334;2023-12-14T08:10:26;9.17;87.46
28175;SHT30;59417;44.788;10.334;2023-12-14T08:12:52;9.21;87.15
28175;SHT30;59417;44.788;10.334;2023-12-14T08:15:22;9.21;87.26
28175;SHT30;59417;44.788;10.334;2023-12-14T08:17:48;9.21;87.43
28175;SHT30;59417;44.788;10.334;2023-12-14T08:20:17;9.23;87.09
28175;SHT30;59417;44.788;10.334;2023-12-14T08:22:42;9.24;87.00
28175;SHT30;59417;44.788;10.334;2023-12-14T08:25:14;9.25;86.84
28175;SHT30;59417;44.788;10.334;2023-12-14T08:27:51;9.37;86.66
28175;SHT30;59417;44.788;10.334;2023-12-14T08:30:21;9.25;87.38
28175;SHT30;59417;44.788;10.334;2023-12-14T08:32:46;9.27;87.32
28175;SHT30;59417;44.788;10.334;2023-12-14T08:35:12;9.23;87.23
28175;SHT30;59417;44.788;10.334;2023-12-14T08:37:38;9.21;87.37
28175;SHT30;59417;44.788;10.334;2023-12-14T08:40:05;9.39;86.89
28175;SHT30;59417;44.788;10.334;2023-12-14T08:42:31;9.39;86.93
28175;SHT30;59417;44.788;10.334;2023-12-14T08:44:59;9.21;87.87
28175;SHT30;59417;44.788;10.334;2023-12-14T08:47:25;9.17;88.50
28175;SHT30;59417;44.788;10.334;2023-12-14T08:49:51;9.18;88.86
28175;SHT30;59417;44.788;10.334;2023-12-14T08:52:17;9.44;87.33
28175;SHT30;59417;44.788;10.334;2023-12-14T08:54:42;9.57;85.98
28175;SHT30;59417;44.788;10.334;2023-12-14T08:57:11;9.68;85.58
28175;SHT30;59417;44.788;10.334;2023-12-14T08:59:39;9.62;86.01
28175;SHT30;59417;44.788;10.334;2023-12-14T09:02:05;9.61;85.82
28175;SHT30;59417;44.788;10.334;2023-12-14T09:04:31;9.61;85.92
28175;SHT30;59417;44.788;10.334;2023-12-14T09:06:57;9.49;86.47
28175;SHT30;59417;44.788;10.334;2023-12-14T09:09:24;9.58;85.84
28175;SHT30;59417;44.788;10.334;2023-12-14T09:11:50;9.45;85.94
28175;SHT30;59417;44.788;10.334;2023-12-14T09:14:16;9.37;86.60
28175;SHT30;59417;44.788;10.334;2023-12-14T09:16:41;9.32;87.29
28175;SHT30;59417;44.788;10.334;2023-12-14T09:19:09;9.23;87.84
28175;SHT30;59417;44.788;10.334;2023-12-14T09:21:34;9.20;88.28
28175;SHT30;59417;44.788;10.334;2023-12-14T09:24:00;9.45;87.17
28175;SHT30;59417;44.788;10.334;2023-12-14T09:26:30;9.45;86.56
28175;SHT30;59417;44.788;10.334;2023-12-14T09:28:55;9.63;86.35
28175;SHT30;59417;44.788;10.334;2023-12-14T09:31:21;9.69;86.46
28175;SHT30;59417;44.788;10.334;2023-12-14T09:33:46;9.78;84.94
28175;SHT30;59417;44.788;10.334;2023-12-14T09:36:12;9.92;84.70
28175;SHT30;59417;44.788;10.334;2023-12-14T09:38:38;9.79;85.14
28175;SHT30;59417;44.788;10.334;2023-12-14T09:41:03;9.89;84.72
28175;SHT30;59417;44.788;10.334;2023-12-14T09:43:30;9.81;84.75
28175;SHT30;59417;44.788;10.334;2023-12-14T09:45:55;9.66;85.22
28175;SHT30;59417;44.788;10.334;2023-12-14T09:48:22;9.54;86.25
28175;SHT30;59417;44.788;10.334;2023-12-14T09:50:49;9.57;86.86
28175;SHT30;59417;44.788;10.334;2023-12-14T09:53:15;9.57;87.00
28175;SHT30;59417;44.788;10.334;2023-12-14T09:55:41;9.62;87.26
28175;SHT30;59417;44.788;10.334;2023-12-14T09:58:06;9.96;85.18
28175;SHT30;59417;44.788;10.334;2023-12-14T10:00:39;10.05;84.90
28175;SHT30;59417;44.788;10.334;2023-12-14T10:03:27;9.88;85.96
28175;SHT30;59417;44.788;10.334;2023-12-14T10:05:58;10.03;86.22
28175;SHT30;59417;44.788;10.334;2023-12-14T10:08:27;10.09;84.55
28175;SHT30;59417;44.788;10.334;2023-12-14T10:10:54;10.05;85.46
28175;SHT30;59417;44.788;10.334;2023-12-14T10:13:22;10.21;85.32
28175;SHT30;59417;44.788;10.334;2023-12-14T10:16:00;10.30;84.31
28175;SHT30;59417;44.788;10.334;2023-12-14T10:18:26;10.34;84.95
28175;SHT30;59417;44.788;10.334;2023-12-14T10:20:51;10.41;85.06
28175;SHT30;59417;44.788;10.334;2023-12-14T10:23:17;10.45;85.02
28175;SHT30;59417;44.788;10.334;2023-12-14T10:25:43;10.75;84.19
28175;SHT30;59417;44.788;10.334;2023-12-14T10:28:12;10.82;81.72
28175;SHT30;59417;44.788;10.334;2023-12-14T10:30:41;10.75;82.24
28175;SHT30;59417;44.788;10.334;2023-12-14T10:33:07;10.72;82.82
28175;SHT30;59417;44.788;10.334;2023-12-14T10:35:33;10.74;82.93
28175;SHT30;59417;44.788;10.334;2023-12-14T10:38:02;10.96;82.20
28175;SHT30;59417;44.788;10.334;2023-12-14T10:40:30;10.99;81.98
28175;SHT30;59417;44.788;10.334;2023-12-14T10:42:58;11.05;81.16
28175;SHT30;59417;44.788;10.334;2023-12-14T10:45:29;11.11;80.78
28175;SHT30;59417;44.788;10.334;2023-12-14T10:48:07;11.27;81.38
28175;SHT30;59417;44.788;10.334;2023-12-14T10:50:35;11.49;80.36
28175;SHT30;59417;44.788;10.334;2023-12-14T10:53:02;11.47;80.87
28175;SHT30;59417;44.788;10.334;2023-12-14T10:55:42;11.52;79.75
28175;SHT30;59417;44.788;10.334;2023-12-14T10:58:09;11.57;80.12
28175;SHT30;59417;44.788;10.334;2023-12-14T11:00:36;11.66;80.46
28175;SHT30;59417;44.788;10.334;2023-12-14T11:03:03;11.80;79.56
28175;SHT30;59417;44.788;10.334;2023-12-14T11:05:32;11.63;78.85
28175;SHT30;59417;44.788;10.334;2023-12-14T11:08:03;11.56;78.95
28175;SHT30;59417;44.788;10.334;2023-12-14T11:10:38;11.26;80.59
28175;SHT30;59417;44.788;10.334;2023-12-14T11:13:09;11.09;80.99
28175;SHT30;59417;44.788;10.334;2023-12-14T11:16:00;10.85;81.66
28175;SHT30;59417;44.788;10.334;2023-12-14T11:18:27;10.85;82.05
28175;SHT30;59417;44.788;10.334;2023-12-14T11:21:00;10.82;82.69
28175;SHT30;59417;44.788;10.334;2023-12-14T11:23:29;10.87;81.99
28175;SHT30;59417;44.788;10.334;2023-12-14T11:26:01;10.96;81.89
28175;SHT30;59417;44.788;10.334;2023-12-14T11:28:30;11.04;80.55
28175;SHT30;59417;44.788;10.334;2023-12-14T11:30:56;11.05;80.36
28175;SHT30;59417;44.788;10.334;2023-12-14T11:33:22;11.02;80.59
28175;SHT30;59417;44.788;10.334;2023-12-14T11:35:50;11.22;80.16
28175;SHT30;59417;44.788;10.334;2023-12-14T11:38:16;11.22;80.82
28175;SHT30;59417;44.788;10.334;2023-12-14T11:40:43;11.04;80.44
28175;SHT30;59417;44.788;10.334;2023-12-14T11:43:08;11.02;80.78
28175;SHT30;59417;44.788;10.334;2023-12-14T11:45:38;11.01;82.04
28175;SHT30;59417;44.788;10.334;2023-12-14T11:48:06;10.95;81.53
28175;SHT30;59417;44.788;10.334;2023-12-14T11:50:32;11.13;80.98
28175;SHT30;59417;44.788;10.334;2023-12-14T11:53:02;11.22;80.86
28175;SHT30;59417;44.788;10.334;2023-12-14T11:55:29;11.33;79.98
28175;SHT30;59417;44.788;10.334;2023-12-14T11:57:58;11.15;80.81
28175;SHT30;59417;44.788;10.334;2023-12-14T12:00:28;11.27;80.10
28175;SHT30;59417;44.788;10.334;2023-12-14T12:03:13;11.16;81.26
28175;SHT30;59417;44.788;10.334;2023-12-14T12:05:42;11.36;80.23
28175;SHT30;59417;44.788;10.334;2023-12-14T12:08:09;11.42;80.29
28175;SHT30;59417;44.788;10.334;2023-12-14T12:10:36;11.33;81.04
28175;SHT30;59417;44.788;10.334;2023-12-14T12:13:03;11.16;81.88
28175;SHT30;59417;44.788;10.334;2023-12-14T12:15:31;11.22;82.51
28175;SHT30;59417;44.788;10.334;2023-12-14T12:17:57;11.25;82.77
28175;SHT30;59417;44.788;10.334;2023-12-14T12:20:23;11.26;82.89
28175;SHT30;59417;44.788;10.334;2023-12-14T12:22:49;11.32;81.30
28175;SHT30;59417;44.788;10.334;2023-12-14T12:25:15;11.27;81.64
28175;SHT30;59417;44.788;10.334;2023-12-14T12:27:40;11.16;82.07
28175;SHT30;59417;44.788;10.334;2023-12-14T12:30:07;11.09;81.62
28175;SHT30;59417;44.788;10.334;2023-12-14T12:32:32;11.25;80.55
28175;SHT30;59417;44.788;10.334;2023-12-14T12:34:58;11.22;80.13
28175;SHT30;59417;44.788;10.334;2023-12-14T12:37:23;11.18;80.16
28175;SHT30;59417;44.788;10.334;2023-12-14T12:39:49;11.25;80.20
28175;SHT30;59417;44.788;10.334;2023-12-14T12:42:16;11.09;81.23
28175;SHT30;59417;44.788;10.334;2023-12-14T12:44:43;11.29;80.35
28175;SHT30;59417;44.788;10.334;2023-12-14T12:47:08;11.33;81.10
28175;SHT30;59417;44.788;10.334;2023-12-14T12:49:34;11.30;80.99
28175;SHT30;59417;44.788;10.334;2023-12-14T12:52:09;11.19;80.91
28175;SHT30;59417;44.788;10.334;2023-12-14T12:54:36;11.18;81.48
28175;SHT30;59417;44.788;10.334;2023-12-14T12:57:02;11.16;81.02
28175;SHT30;59417;44.788;10.334;2023-12-14T12:59:27;11.15;80.77
28175;SHT30;59417;44.788;10.334;2023-12-14T13:01:53;11.18;81.32
28175;SHT30;59417;44.788;10.334;2023-12-14T13:04:20;11.13;81.43
28175;SHT30;59417;44.788;10.334;2023-12-14T13:06:50;11.08;82.72
28175;SHT30;59417;44.788;10.334;2023-12-14T13:09:18;11.11;82.44
28175;SHT30;59417;44.788;10.334;2023-12-14T13:11:46;11.04;82.78
28175;SHT30;59417;44.788;10.334;2023-12-14T13:14:16;11.19;81.67
28175;SHT30;59417;44.788;10.334;2023-12-14T13:16:41;11.33;80.43
28175;SHT30;59417;44.788;10.334;2023-12-14T13:19:08;11.20;80.68
28175;SHT30;59417;44.788;10.334;2023-12-14T13:21:33;11.20;81.04
28175;SHT30;59417;44.788;10.334;2023-12-14T13:23:59;11.19;81.64
28175;SHT30;59417;44.788;10.334;2023-12-14T13:26:25;11.33;81.46
28175;SHT30;59417;44.788;10.334;2023-12-14T13:28:51;11.32;80.43
28175;SHT30;59417;44.788;10.334;2023-12-14T13:31:18;11.20;80.85
28175;SHT30;59417;44.788;10.334;2023-12-14T13:33:45;11.20;81.56
28175;SHT30;59417;44.788;10.334;2023-12-14T13:36:12;11.29;80.55
28175;SHT30;59417;44.788;10.334;2023-12-14T13:38:38;11.23;81.31
28175;SHT30;59417;44.788;10.334;2023-12-14T13:41:03;11.29;80.54
28175;SHT30;59417;44.788;10.334;2023-12-14T13:43:29;11.33;80.36
28175;SHT30;59417;44.788;10.334;2023-12-14T13:45:58;11.42;80.67
28175;SHT30;59417;44.788;10.334;2023-12-14T13:48:27;11.27;80.32
28175;SHT30;59417;44.788;10.334;2023-12-14T13:50:54;11.25;81.16
28175;SHT30;59417;44.788;10.334;2023-12-14T13:53:21;11.20;80.93
28175;SHT30;59417;44.788;10.334;2023-12-14T13:55:47;11.16;81.74
28175;SHT30;59417;44.788;10.334;2023-12-14T13:58:14;11.33;80.55
28175;SHT30;59417;44.788;10.334;2023-12-14T14:00:43;11.23;81.02
28175;SHT30;59417;44.788;10.334;2023-12-14T14:03:09;11.32;81.21
28175;SHT30;59417;44.788;10.334;2023-12-14T14:05:35;11.43;80.43
28175;SHT30;59417;44.788;10.334;2023-12-14T14:08:01;11.40;80.85
28175;SHT30;59417;44.788;10.334;2023-12-14T14:10:30;11.59;79.70
28175;SHT30;59417;44.788;10.334;2023-12-14T14:12:59;11.50;79.56
28175;SHT30;59417;44.788;10.334;2023-12-14T14:15:25;11.42;80.05
28175;SHT30;59417;44.788;10.334;2023-12-14T14:17:51;11.35;80.39
28175;SHT30;59417;44.788;10.334;2023-12-14T14:20:18;11.35;80.09
28175;SHT30;59417;44.788;10.334;2023-12-14T14:22:44;11.27;80.43
28175;SHT30;59417;44.788;10.334;2023-12-14T14:25:12;11.32;80.56
28175;SHT30;59417;44.788;10.334;2023-12-14T14:27:38;11.32;80.58
28175;SHT30;59417;44.788;10.334;2023-12-14T14:30:06;11.27;80.65
28175;SHT30;59417;44.788;10.334;2023-12-14T14:32:32;11.23;80.85
28175;SHT30;59417;44.788;10.334;2023-12-14T14:34:58;11.20;81.01
28175;SHT30;59417;44.788;10.334;2023-12-14T14:37:24;11.15;81.34
28175;SHT30;59417;44.788;10.334;2023-12-14T14:39:51;11.15;81.57
28175;SHT30;59417;44.788;10.334;2023-12-14T14:42:17;11.11;81.57
28175;SHT30;59417;44.788;10.334;2023-12-14T14:44:42;11.09;82.26
28175;SHT30;59417;44.788;10.334;2023-12-14T14:47:08;11.06;82.71
28175;SHT30;59417;44.788;10.334;2023-12-14T14:49:34;11.01;82.97
28175;SHT30;59417;44.788;10.334;2023-12-14T14:52:00;11.05;83.35
28175;SHT30;59417;44.788;10.334;2023-12-14T14:54:25;11.11;83.24
28175;SHT30;59417;44.788;10.334;2023-12-14T14:56:51;11.11;83.22
28175;SHT30;59417;44.788;10.334;2023-12-14T14:59:16;11.01;83.39
28175;SHT30;59417;44.788;10.334;2023-12-14T15:01:42;10.94;83.86
28175;SHT30;59417;44.788;10.334;2023-12-14T15:04:08;10.89;83.95
28175;SHT30;59417;44.788;10.334;2023-12-14T15:06:33;10.74;84.51
28175;SHT30;59417;44.788;10.334;2023-12-14T15:08:59;10.57;85.27
28175;SHT30;59417;44.788;10.334;2023-12-14T15:11:25;10.50;85.80
28175;SHT30;59417;44.788;10.334;2023-12-14T15:13:51;10.48;86.10
28175;SHT30;59417;44.788;10.334;2023-12-14T15:16:17;10.74;85.05
28175;SHT30;59417;44.788;10.334;2023-12-14T15:18:53;10.65;84.95
28175;SHT30;59417;44.788;10.334;2023-12-14T15:21:19;10.50;85.51
28175;SHT30;59417;44.788;10.334;2023-12-14T15:23:44;10.37;85.84
28175;SHT30;59417;44.788;10.334;2023-12-14T15:26:12;10.34;86.19
28175;SHT30;59417;44.788;10.334;2023-12-14T15:28:38;10.30;86.38
28175;SHT30;59417;44.788;10.334;2023-12-14T15:31:04;10.26;86.52
28175;SHT30;59417;44.788;10.334;2023-12-14T15:33:29;10.27;86.47